Time;durP1;ratioP1;P1;durP2;ratioP2;P2;SDS_P1;SDS_P2;PMS_P1;PMS_P2;Temp;Humidity;BMP_temperature;BMP_pressure;BME280_temperature;BME280_humidity;BME280_pressure;Samples;Min_cycle;Max_cycle;Signal;HPM_P1;HPM_P2
2022/08/15 00:01:06;;;;;;;8.20;7.33;;;20.00;75.10;;;;;;5114223;27;20195;-60
2022/08/15 00:03:36;;;;;;;8.50;7.60;;;20.00;75.10;;;;;;5107203;27;20226;-60
2022/08/15 00:06:06;;;;;;;8.20;7.43;;;20.00;75.20;;;;;;5106510;27;20199;-60
2022/08/15 00:08:35;;;;;;;9.70;8.70;;;20.00;75.40;;;;;;5113848;27;20180;-60
2022/08/15 00:11:08;;;;;;;10.23;8.37;;;20.10;75.10;;;;;;5118333;27;20207;-60
2022/08/15 00:13:34;;;;;;;8.93;8.03;;;20.10;75.00;;;;;;5113592;27;20230;-60
2022/08/15 00:16:00;;;;;;;8.30;7.27;;;20.00;75.00;;;;;;5098860;28;20189;-60
2022/08/15 00:18:28;;;;;;;8.00;7.20;;;20.00;74.90;;;;;;5108762;27;20278;-60
2022/08/15 00:20:54;;;;;;;7.87;7.07;;;20.00;74.80;;;;;;5099332;27;20187;-60
2022/08/15 00:23:22;;;;;;;7.87;7.13;;;20.00;74.80;;;;;;5117907;27;20191;-60
2022/08/15 00:25:50;;;;;;;8.13;7.33;;;20.00;75.00;;;;;;5114925;27;20282;-60
2022/08/15 00:28:17;;;;;;;7.93;7.23;;;19.90;75.20;;;;;;5113347;27;20179;-60
2022/08/15 00:30:44;;;;;;;8.03;7.23;;;19.90;75.10;;;;;;5101089;27;20191;-60
2022/08/15 00:33:12;;;;;;;8.30;7.50;;;19.80;75.00;;;;;;5103098;27;20203;-60
2022/08/15 00:35:41;;;;;;;8.73;7.47;;;19.80;75.00;;;;;;5116079;27;20200;-60
2022/08/15 00:38:11;;;;;;;9.57;7.83;;;19.80;75.00;;;;;;5109990;28;20213;-60
2022/08/15 00:43:25;;;;;;;8.37;7.50;;;19.80;75.30;;;;;;5121335;27;20183;-60
2022/08/15 00:45:52;;;;;;;7.67;6.97;;;19.80;75.50;;;;;;5087717;27;20249;-60
2022/08/15 00:51:05;;;;;;;8.10;7.30;;;19.70;75.50;;;;;;5120214;27;20711;-60
2022/08/15 00:53:31;;;;;;;9.10;7.17;;;19.70;75.40;;;;;;5097740;27;20196;-60
2022/08/15 00:55:57;;;;;;;8.63;7.83;;;19.60;75.50;;;;;;5086467;27;20187;-60
2022/08/15 00:58:23;;;;;;;9.00;8.20;;;19.60;75.80;;;;;;5099268;27;20188;-60
2022/08/15 01:00:49;;;;;;;9.87;8.00;;;19.50;75.90;;;;;;5091022;28;20184;-60
2022/08/15 01:03:31;;;;;;;8.70;7.23;;;19.50;76.00;;;;;;5116552;27;20184;-60
2022/08/15 01:06:00;;;;;;;8.67;7.87;;;19.40;76.00;;;;;;5109835;27;20211;-60
2022/08/15 01:08:34;;;;;;;8.20;7.40;;;19.40;75.90;;;;;;5116243;27;20203;-60
2022/08/15 01:11:08;;;;;;;8.07;7.27;;;19.50;76.00;;;;;;5113648;28;20191;-60
2022/08/15 01:13:34;;;;;;;7.57;6.87;;;19.40;76.00;;;;;;5097219;28;20184;-60
2022/08/15 01:16:00;;;;;;;7.70;7.00;;;19.40;76.10;;;;;;5114469;27;20190;-60
2022/08/15 01:18:27;;;;;;;8.43;7.47;;;19.30;76.10;;;;;;5091218;27;20194;-60
2022/08/15 01:20:54;;;;;;;9.20;8.30;;;19.30;76.30;;;;;;5090845;27;20192;-60
2022/08/15 01:23:50;;;;;;;8.70;7.63;;;19.30;76.30;;;;;;5107603;27;20289;-59
2022/08/15 01:26:16;;;;;;;8.40;7.47;;;19.30;76.20;;;;;;5097499;28;20243;-60
2022/08/15 01:28:46;;;;;;;8.40;7.60;;;19.30;76.30;;;;;;5113121;27;20265;-60
2022/08/15 01:31:18;;;;;;;7.47;6.77;;;19.30;76.40;;;;;;5100751;27;20188;-60
2022/08/15 01:33:56;;;;;;;10.13;8.37;;;19.30;76.40;;;;;;5130064;27;20179;-60
2022/08/15 01:36:25;;;;;;;7.20;6.50;;;19.30;76.40;;;;;;5133125;27;20215;-60
2022/08/15 01:39:09;;;;;;;8.47;7.57;;;19.20;76.40;;;;;;5110055;28;20237;-61
2022/08/15 01:42:00;;;;;;;7.90;7.20;;;19.20;76.40;;;;;;5113941;27;20215;-60
2022/08/15 01:44:42;;;;;;;8.47;7.57;;;19.20;76.50;;;;;;5100772;28;20187;-60
2022/08/15 01:47:19;;;;;;;8.00;7.20;;;19.10;76.90;;;;;;5099918;28;20208;-60
2022/08/15 01:50:08;;;;;;;9.17;8.27;;;19.10;77.00;;;;;;5115696;28;20203;-60
2022/08/15 01:52:43;;;;;;;7.90;7.10;;;19.00;76.90;;;;;;5107666;28;20231;-60
2022/08/15 01:55:11;;;;;;;8.10;7.30;;;19.00;77.00;;;;;;5116524;27;20188;-60
2022/08/15 01:57:37;;;;;;;8.63;7.03;;;18.90;77.00;;;;;;5116909;27;20274;-60
2022/08/15 02:00:06;;;;;;;8.67;6.97;;;18.90;77.10;;;;;;5096032;27;20259;-60
2022/08/15 02:02:31;;;;;;;7.80;7.07;;;18.90;77.10;;;;;;5109629;28;20195;-60
2022/08/15 02:04:57;;;;;;;7.97;7.10;;;18.90;77.20;;;;;;5098101;27;20183;-60
2022/08/15 02:07:25;;;;;;;8.73;7.33;;;18.80;77.40;;;;;;5086964;27;20219;-60
2022/08/15 02:09:53;;;;;;;8.73;7.83;;;18.80;77.30;;;;;;5107976;28;20274;-60
2022/08/15 02:12:24;;;;;;;8.57;7.73;;;18.80;77.50;;;;;;5116854;27;20187;-60
2022/08/15 02:14:49;;;;;;;11.33;7.90;;;18.70;77.50;;;;;;5127535;27;20198;-60
2022/08/15 02:17:16;;;;;;;7.77;7.07;;;18.70;77.50;;;;;;5127586;27;20180;-61
2022/08/15 02:19:46;;;;;;;8.23;7.40;;;18.60;77.80;;;;;;5104086;27;20205;-60
2022/08/15 02:22:13;;;;;;;8.43;7.63;;;18.60;77.90;;;;;;5112791;27;20186;-60
2022/08/15 02:24:38;;;;;;;8.03;7.30;;;18.50;78.30;;;;;;5103756;27;20239;-60
2022/08/15 02:27:05;;;;;;;8.63;7.33;;;18.50;78.40;;;;;;5115347;27;20206;-60
2022/08/15 02:29:32;;;;;;;7.97;7.27;;;18.50;78.40;;;;;;5109201;27;20184;-60
2022/08/15 02:32:15;;;;;;;8.73;7.87;;;18.50;78.20;;;;;;5105702;27;20181;-60
2022/08/15 02:34:43;;;;;;;8.07;7.27;;;18.50;78.20;;;;;;5117791;27;20188;-60
2022/08/15 02:37:11;;;;;;;8.27;7.47;;;18.40;78.40;;;;;;5113157;27;20256;-60
2022/08/15 02:39:39;;;;;;;9.43;7.67;;;18.40;78.50;;;;;;5119678;27;20205;-60
2022/08/15 02:42:05;;;;;;;8.90;7.77;;;18.40;78.50;;;;;;5101497;27;20245;-60
2022/08/15 02:44:30;;;;;;;8.27;7.50;;;18.40;78.50;;;;;;5091763;28;20203;-60
2022/08/15 02:46:56;;;;;;;8.30;7.50;;;18.40;78.40;;;;;;5100699;28;20209;-60
2022/08/15 02:49:24;;;;;;;8.37;7.57;;;18.30;78.40;;;;;;5104339;27;20185;-60
2022/08/15 02:51:51;;;;;;;8.90;8.00;;;18.30;78.30;;;;;;5120311;27;20184;-60
2022/08/15 02:54:20;;;;;;;8.13;7.43;;;18.40;78.40;;;;;;5099332;28;20213;-60
2022/08/15 02:56:46;;;;;;;9.20;7.17;;;18.30;78.40;;;;;;5116453;27;20184;-60
2022/08/15 02:59:12;;;;;;;9.07;8.17;;;18.30;78.40;;;;;;5099517;28;20190;-60
2022/08/15 03:01:40;;;;;;;9.53;7.30;;;18.30;78.30;;;;;;5079727;27;20194;-60
2022/08/15 03:04:10;;;;;;;8.53;7.73;;;18.30;78.50;;;;;;5113469;27;20183;-60
2022/08/15 03:06:37;;;;;;;8.50;7.70;;;18.30;78.50;;;;;;5105774;28;20224;-60
2022/08/15 03:09:06;;;;;;;8.87;7.97;;;18.30;78.50;;;;;;5117857;27;20183;-60
2022/08/15 03:11:33;;;;;;;8.50;7.70;;;18.20;78.70;;;;;;5115077;27;20180;-60
2022/08/15 03:13:59;;;;;;;7.83;7.10;;;18.20;78.80;;;;;;5116563;28;20207;-60
2022/08/15 03:16:25;;;;;;;8.87;7.97;;;18.10;78.90;;;;;;5079141;27;20191;-60
2022/08/15 03:18:50;;;;;;;8.07;7.33;;;18.10;78.80;;;;;;5101125;27;20183;-60
2022/08/15 03:21:19;;;;;;;8.93;8.07;;;18.10;79.00;;;;;;5066620;28;20180;-60
2022/08/15 03:23:49;;;;;;;9.83;8.17;;;18.00;79.10;;;;;;5100853;27;20232;-60
2022/08/15 03:26:21;;;;;;;8.60;7.70;;;18.10;79.10;;;;;;5085137;28;20228;-60
2022/08/15 03:28:46;;;;;;;9.87;8.83;;;18.00;79.00;;;;;;5112941;27;20184;-60
2022/08/15 03:31:13;;;;;;;8.33;7.47;;;18.00;79.20;;;;;;5111569;27;20229;-60
2022/08/15 03:33:40;;;;;;;9.67;8.70;;;18.00;79.50;;;;;;5117427;27;20172;-60
2022/08/15 03:36:07;;;;;;;8.83;8.03;;;18.00;79.40;;;;;;5105296;28;20251;-60
2022/08/15 03:38:33;;;;;;;9.03;8.13;;;17.90;79.40;;;;;;5118940;27;20179;-60
2022/08/15 03:40:59;;;;;;;8.90;8.00;;;17.90;79.60;;;;;;5085032;27;20184;-60
2022/08/15 03:43:28;;;;;;;8.80;8.00;;;17.80;79.60;;;;;;5102035;27;20184;-60
2022/08/15 03:46:01;;;;;;;9.47;8.47;;;17.80;79.70;;;;;;5114417;27;20195;-61
2022/08/15 03:48:48;;;;;;;8.63;7.83;;;17.80;79.70;;;;;;5114107;27;20179;-60
2022/08/15 03:51:16;;;;;;;9.30;8.40;;;17.80;79.70;;;;;;5117027;27;20264;-60
2022/08/15 03:53:54;;;;;;;9.67;8.70;;;17.80;79.90;;;;;;5118913;27;20210;-60
2022/08/15 03:56:24;;;;;;;9.37;8.47;;;17.80;80.20;;;;;;5106677;28;20188;-60
2022/08/15 03:58:51;;;;;;;10.60;8.93;;;17.70;80.20;;;;;;5111471;27;20290;-60
2022/08/15 04:01:32;;;;;;;10.33;8.73;;;17.70;80.20;;;;;;5097983;28;20181;-60
2022/08/15 04:03:58;;;;;;;8.80;7.90;;;17.70;80.40;;;;;;5118035;27;20261;-60
2022/08/15 04:06:26;;;;;;;8.50;7.67;;;17.60;80.50;;;;;;5093859;27;20201;-60
2022/08/15 04:08:53;;;;;;;9.23;8.33;;;17.60;80.60;;;;;;5113172;27;20176;-60
2022/08/15 04:11:22;;;;;;;14.17;9.73;;;17.50;80.70;;;;;;5092042;28;20185;-60
2022/08/15 04:13:48;;;;;;;11.17;8.70;;;17.50;80.70;;;;;;5107822;27;20180;-60
2022/08/15 04:16:15;;;;;;;8.90;8.10;;;17.50;80.70;;;;;;5101470;27;20176;-60
2022/08/15 04:18:41;;;;;;;9.63;8.73;;;17.50;80.60;;;;;;5101410;27;20199;-60
2022/08/15 04:21:11;;;;;;;9.77;8.77;;;17.50;80.80;;;;;;5084405;27;20202;-60
2022/08/15 04:23:37;;;;;;;10.23;8.83;;;17.50;80.70;;;;;;5117581;27;20327;-60
2022/08/15 04:26:03;;;;;;;9.53;8.53;;;17.40;80.80;;;;;;5084740;27;20238;-60
2022/08/15 04:28:31;;;;;;;10.13;8.93;;;17.40;80.90;;;;;;5107518;27;20184;-60
2022/08/15 04:30:59;;;;;;;10.80;8.87;;;17.50;80.80;;;;;;5084991;27;20180;-60
2022/08/15 04:33:28;;;;;;;10.27;9.13;;;17.40;80.90;;;;;;5131185;27;20245;-60
2022/08/15 04:36:10;;;;;;;9.70;8.80;;;17.50;81.00;;;;;;5103980;28;20181;-60
2022/08/15 04:38:41;;;;;;;10.83;8.90;;;17.50;80.80;;;;;;5120854;27;20219;-60
2022/08/15 04:41:08;;;;;;;9.83;8.40;;;17.50;81.00;;;;;;5109535;27;20258;-60
2022/08/15 04:43:35;;;;;;;9.73;8.83;;;17.50;81.00;;;;;;5101344;27;20196;-60
2022/08/15 04:46:03;;;;;;;10.00;9.00;;;17.50;81.10;;;;;;5113583;27;20314;-60
2022/08/15 04:48:29;;;;;;;10.10;9.10;;;17.40;81.30;;;;;;5099465;27;20180;-60
2022/08/15 04:50:57;;;;;;;9.70;8.70;;;17.40;81.30;;;;;;5116489;27;20184;-60
2022/08/15 04:53:25;;;;;;;10.13;9.00;;;17.40;81.50;;;;;;5118137;27;20197;-60
2022/08/15 04:55:52;;;;;;;10.07;8.53;;;17.40;81.70;;;;;;5114278;27;20191;-60
2022/08/15 04:58:18;;;;;;;9.30;8.40;;;17.40;81.70;;;;;;5114161;27;20217;-59
2022/08/15 05:00:54;;;;;;;9.53;8.63;;;17.40;81.70;;;;;;5093274;27;20203;-60
2022/08/15 05:03:20;;;;;;;9.30;8.40;;;17.40;82.00;;;;;;5109446;27;20180;-60
2022/08/15 05:05:49;;;;;;;11.43;9.73;;;17.50;81.60;;;;;;5095594;28;20223;-60
2022/08/15 05:08:15;;;;;;;9.67;8.67;;;17.50;81.40;;;;;;5116813;27;20176;-60
2022/08/15 05:10:42;;;;;;;10.27;9.27;;;17.50;81.30;;;;;;5116922;27;20176;-60
2022/08/15 05:13:19;;;;;;;11.33;9.50;;;17.50;81.40;;;;;;5094847;28;20180;-60
2022/08/15 05:15:47;;;;;;;9.47;8.47;;;17.50;81.50;;;;;;5111420;28;20194;-60
2022/08/15 05:18:13;;;;;;;9.87;8.83;;;17.50;81.50;;;;;;5111434;27;20194;-60
2022/08/15 05:20:42;;;;;;;9.27;8.30;;;17.60;81.50;;;;;;5108639;27;20187;-60
2022/08/15 05:23:11;;;;;;;10.63;9.17;;;17.60;81.70;;;;;;5097102;27;20258;-59
2022/08/15 05:25:40;;;;;;;9.70;8.63;;;17.60;81.70;;;;;;5114434;27;20311;-60
2022/08/15 05:28:06;;;;;;;9.70;8.80;;;17.60;81.60;;;;;;5116081;28;20208;-60
2022/08/15 05:30:32;;;;;;;11.03;8.57;;;17.70;81.60;;;;;;5105203;27;20256;-59
2022/08/15 05:33:18;;;;;;;9.57;8.60;;;17.70;81.70;;;;;;5082935;27;20187;-60
2022/08/15 05:35:46;;;;;;;9.70;8.70;;;17.80;81.40;;;;;;5104672;27;20179;-60
2022/08/15 05:38:21;;;;;;;9.70;8.80;;;17.80;81.20;;;;;;5115855;28;20192;-60
2022/08/15 05:41:14;;;;;;;10.33;9.33;;;17.90;81.00;;;;;;5116464;28;20244;-60
2022/08/15 05:43:48;;;;;;;10.13;9.13;;;17.90;80.90;;;;;;5115990;28;20180;-60
2022/08/15 05:46:26;;;;;;;11.20;9.60;;;18.00;80.80;;;;;;5110258;28;20192;-60
2022/08/15 05:49:40;;;;;;;11.60;9.43;;;18.00;80.70;;;;;;5104876;28;20183;-60
2022/08/15 05:52:12;;;;;;;10.53;9.20;;;18.00;80.70;;;;;;5102036;28;20226;-62
2022/08/15 05:54:54;;;;;;;9.73;8.83;;;18.10;80.70;;;;;;5107585;28;20211;-60
2022/08/15 05:57:31;;;;;;;9.23;8.33;;;18.10;80.70;;;;;;5108068;28;20176;-60
2022/08/15 06:00:03;;;;;;;10.27;9.27;;;18.10;80.60;;;;;;5113183;28;20180;-60
2022/08/15 06:02:37;;;;;;;10.30;9.20;;;18.20;80.60;;;;;;5109900;28;20172;-60
2022/08/15 06:05:10;;;;;;;11.13;9.13;;;18.20;80.60;;;;;;5115690;28;20183;-60
2022/08/15 06:07:38;;;;;;;9.57;8.67;;;18.20;80.50;;;;;;5115816;28;20200;-60
2022/08/15 06:10:25;;;;;;;10.33;9.23;;;18.30;80.50;;;;;;5116918;28;20184;-60
2022/08/15 06:12:56;;;;;;;9.60;8.40;;;18.30;80.40;;;;;;5104846;28;20191;-60
2022/08/15 06:15:35;;;;;;;9.13;8.23;;;18.30;80.30;;;;;;5111881;28;20184;-60
2022/08/15 06:18:07;;;;;;;9.87;8.87;;;18.40;80.20;;;;;;5114302;28;20176;-62
2022/08/15 06:20:48;;;;;;;9.53;8.63;;;18.40;80.20;;;;;;5113240;28;20208;-62
2022/08/15 06:23:33;;;;;;;10.83;8.37;;;18.40;80.10;;;;;;5115867;28;20180;-62
2022/08/15 06:26:11;;;;;;;9.43;8.53;;;18.50;80.00;;;;;;5112097;28;20213;-62
2022/08/15 06:28:49;;;;;;;11.80;9.00;;;18.50;80.00;;;;;;5115632;28;20179;-61
2022/08/15 06:31:38;;;;;;;9.53;8.53;;;18.50;80.00;;;;;;5100332;28;20191;-61
2022/08/15 06:34:42;;;;;;;9.90;8.90;;;18.60;79.90;;;;;;5097126;28;20184;-59
2022/08/15 06:37:17;;;;;;;9.37;8.47;;;18.60;79.90;;;;;;5104085;28;20260;-60
2022/08/15 06:39:54;;;;;;;10.23;8.87;;;18.70;79.80;;;;;;5115390;27;20187;-59
2022/08/15 06:42:33;;;;;;;9.87;8.87;;;18.70;79.70;;;;;;5108544;27;20176;-60
2022/08/15 06:45:05;;;;;;;10.57;9.53;;;18.80;79.70;;;;;;5118498;27;20190;-58
2022/08/15 06:47:32;;;;;;;10.40;8.50;;;18.80;79.70;;;;;;5117562;27;20202;-59
2022/08/15 06:50:09;;;;;;;10.50;8.90;;;18.80;79.40;;;;;;5102738;27;20194;-60
2022/08/15 06:52:34;;;;;;;10.80;8.53;;;18.90;79.40;;;;;;5127134;27;20184;-59
2022/08/15 06:55:37;;;;;;;9.33;8.43;;;18.90;79.30;;;;;;5108751;27;20234;-59
2022/08/15 06:58:16;;;;;;;9.80;8.80;;;19.00;79.10;;;;;;5117930;27;20257;-58
2022/08/15 07:00:48;;;;;;;9.27;8.13;;;19.00;79.00;;;;;;5136158;27;20179;-59
2022/08/15 07:03:44;;;;;;;9.27;8.37;;;19.10;78.80;;;;;;5116566;27;20171;-60
2022/08/15 07:06:14;;;;;;;8.90;8.00;;;19.20;78.80;;;;;;5110919;27;20332;-58
2022/08/15 07:08:46;;;;;;;9.43;8.43;;;19.20;78.70;;;;;;5137339;27;20198;-58
2022/08/15 07:11:29;;;;;;;8.53;7.63;;;19.30;78.30;;;;;;5119563;27;20275;-58
2022/08/15 07:14:06;;;;;;;9.90;8.53;;;19.30;78.00;;;;;;5119202;27;20183;-58
2022/08/15 07:17:02;;;;;;;9.47;7.90;;;19.30;77.70;;;;;;5134557;27;20175;-59
2022/08/15 07:19:28;;;;;;;8.83;7.90;;;19.50;77.40;;;;;;5136495;27;20179;-59
2022/08/15 07:21:53;;;;;;;8.63;7.83;;;19.50;77.10;;;;;;5095201;28;20189;-59
2022/08/15 07:24:19;;;;;;;8.83;7.93;;;19.60;76.90;;;;;;5083471;27;20243;-59
2022/08/15 07:27:02;;;;;;;8.20;7.17;;;19.70;76.70;;;;;;5137080;27;20215;-60
2022/08/15 07:29:28;;;;;;;8.47;7.67;;;19.70;76.50;;;;;;5115936;27;20175;-60
2022/08/15 07:32:11;;;;;;;8.10;7.40;;;19.80;76.40;;;;;;5111913;27;20177;-60
2022/08/15 07:34:51;;;;;;;8.87;7.97;;;19.80;76.10;;;;;;5104404;27;20191;-60
2022/08/15 07:37:22;;;;;;;8.50;7.63;;;19.90;75.90;;;;;;5126533;27;20179;-60
2022/08/15 07:39:57;;;;;;;9.00;7.80;;;20.00;75.60;;;;;;5135590;27;20216;-60
2022/08/15 07:42:23;;;;;;;9.20;8.30;;;20.00;74.80;;;;;;5119100;27;20168;-59
2022/08/15 07:44:52;;;;;;;9.07;8.13;;;20.20;74.60;;;;;;5098905;28;20242;-59
2022/08/15 07:47:24;;;;;;;8.33;7.53;;;20.20;74.40;;;;;;5132799;27;20203;-59
2022/08/15 07:50:04;;;;;;;9.33;7.50;;;20.30;74.40;;;;;;5113562;27;20186;-59
2022/08/15 07:52:31;;;;;;;8.83;8.00;;;20.40;73.70;;;;;;5131610;27;20266;-59
2022/08/15 07:55:15;;;;;;;8.93;8.03;;;20.50;72.70;;;;;;5131668;27;20180;-59
2022/08/15 07:57:41;;;;;;;9.70;8.30;;;20.60;71.90;;;;;;5118292;27;20180;-59
2022/08/15 08:00:13;;;;;;;8.23;7.43;;;20.70;72.10;;;;;;5116253;27;20194;-59
2022/08/15 08:02:47;;;;;;;8.30;7.50;;;20.70;71.90;;;;;;5109230;28;20267;-58
2022/08/15 08:05:13;;;;;;;8.20;7.13;;;20.80;72.50;;;;;;5114375;27;20270;-59
2022/08/15 08:07:49;;;;;;;8.57;7.77;;;20.80;72.40;;;;;;5136387;27;20203;-58
2022/08/15 08:10:24;;;;;;;8.37;7.57;;;20.90;72.30;;;;;;5135061;27;20171;-59
2022/08/15 08:13:08;;;;;;;8.10;7.40;;;21.00;71.40;;;;;;5134252;27;20179;-59
2022/08/15 08:15:45;;;;;;;7.93;7.23;;;21.00;71.30;;;;;;5117607;27;20253;-59
2022/08/15 08:18:27;;;;;;;7.67;6.93;;;21.00;70.60;;;;;;5107926;28;20180;-58
2022/08/15 08:21:04;;;;;;;7.53;6.83;;;21.20;70.50;;;;;;5107551;27;20201;-59
2022/08/15 08:23:40;;;;;;;9.77;7.53;;;21.20;70.30;;;;;;5129910;27;20208;-60
2022/08/15 08:26:27;;;;;;;8.13;6.57;;;21.30;70.10;;;;;;5114876;27;20203;-59
2022/08/15 08:29:11;;;;;;;7.60;6.90;;;21.30;68.00;;;;;;5133776;27;20175;-61
2022/08/15 08:31:48;;;;;;;7.63;6.83;;;21.70;68.10;;;;;;5134878;27;20187;-59
2022/08/15 08:34:28;;;;;;;7.60;6.90;;;21.60;68.30;;;;;;5117573;27;20274;-58
2022/08/15 08:37:18;;;;;;;6.53;5.93;;;21.70;68.80;;;;;;5134753;27;20179;-58
2022/08/15 08:41:24;;;;;;;6.83;5.90;;;21.80;65.70;;;;;;5131707;27;20191;-58
2022/08/15 08:42:55;;;;;;;6.03;5.43;;;21.80;65.90;;;;;;5134765;27;20244;-57
2022/08/15 08:45:44;;;;;;;6.73;6.13;;;21.80;66.40;;;;;;5116233;27;20200;-58
2022/08/15 08:48:31;;;;;;;6.83;6.20;;;21.90;66.40;;;;;;5072912;27;20196;-59
2022/08/15 08:50:57;;;;;;;6.90;6.33;;;21.90;67.40;;;;;;5107292;28;20211;-58
2022/08/15 08:53:37;;;;;;;7.27;6.57;;;22.00;67.50;;;;;;5118961;27;20195;-57
2022/08/15 08:56:28;;;;;;;7.20;6.53;;;22.10;66.80;;;;;;5125241;27;20179;-58
2022/08/15 08:59:46;;;;;;;7.43;6.53;;;22.20;67.40;;;;;;5098157;28;20188;-59
2022/08/15 09:02:20;;;;;;;8.80;7.07;;;22.30;65.60;;;;;;5080065;27;20195;-59
2022/08/15 09:04:50;;;;;;;7.90;7.10;;;22.30;67.20;;;;;;5133788;27;20175;-59
2022/08/15 09:07:30;;;;;;;8.00;7.20;;;22.40;67.90;;;;;;5115511;27;20214;-59
2022/08/15 09:10:00;;;;;;;8.90;7.43;;;22.40;65.20;;;;;;5115381;27;20179;-59
2022/08/15 09:15:23;;;;;;;8.67;6.60;;;22.70;66.20;;;;;;5133446;27;20189;-59
2022/08/15 09:17:56;;;;;;;7.97;6.87;;;22.70;66.50;;;;;;5134284;27;20183;-59
2022/08/15 09:20:29;;;;;;;8.00;7.27;;;22.70;66.70;;;;;;5103236;28;20184;-59
2022/08/15 09:22:55;;;;;;;7.00;6.40;;;22.80;65.90;;;;;;5107513;28;20255;-58
2022/08/15 09:25:27;;;;;;;7.00;6.37;;;22.80;66.10;;;;;;5091820;27;20326;-59
2022/08/15 09:28:07;;;;;;;6.87;6.27;;;22.90;66.60;;;;;;5114596;27;20286;-59
2022/08/15 09:30:33;;;;;;;8.50;6.07;;;23.00;66.20;;;;;;5110094;27;20179;-59
2022/08/15 09:33:08;;;;;;;7.20;6.23;;;23.30;61.00;;;;;;5092167;27;20188;-59
2022/08/15 09:36:22;;;;;;;7.00;6.40;;;23.40;61.90;;;;;;5106422;28;20179;-58
2022/08/15 09:39:13;;;;;;;7.93;6.57;;;23.50;62.30;;;;;;5083287;27;20192;-59
2022/08/15 09:42:18;;;;;;;8.80;6.60;;;23.60;60.70;;;;;;5111196;28;20175;-60
2022/08/15 09:44:53;;;;;;;6.90;6.27;;;23.70;59.50;;;;;;5131365;27;20183;-59
2022/08/15 09:47:39;;;;;;;6.77;6.07;;;23.80;60.70;;;;;;5107042;28;20213;-59
2022/08/15 09:50:30;;;;;;;7.80;6.50;;;23.80;62.10;;;;;;5115057;28;20282;-59
2022/08/15 09:53:10;;;;;;;6.53;5.93;;;23.90;62.10;;;;;;5115451;28;20172;-59
2022/08/15 09:55:46;;;;;;;8.00;5.87;;;23.80;61.00;;;;;;5111299;28;20191;-59
2022/08/15 09:58:21;;;;;;;7.50;5.50;;;23.90;60.20;;;;;;5095412;28;20195;-59
2022/08/15 10:01:14;;;;;;;6.30;5.70;;;24.00;60.80;;;;;;5130890;28;20187;-59
2022/08/15 10:03:46;;;;;;;6.40;5.50;;;24.00;59.00;;;;;;5100468;28;20184;-61
2022/08/15 10:06:13;;;;;;;6.10;5.50;;;24.20;58.80;;;;;;5096972;28;20257;-63
2022/08/15 10:08:59;;;;;;;7.43;5.50;;;24.20;57.70;;;;;;5132551;28;20190;-61
2022/08/15 10:12:06;;;;;;;6.20;5.60;;;24.50;55.70;;;;;;5112645;28;20563;-62
2022/08/15 10:14:52;;;;;;;5.90;5.40;;;24.70;56.60;;;;;;5131254;27;20205;-62
2022/08/15 10:17:34;;;;;;;5.50;4.90;;;25.00;54.90;;;;;;5116416;27;20187;-61
2022/08/15 10:20:15;;;;;;;5.20;4.80;;;25.00;53.50;;;;;;5116003;27;20183;-61
2022/08/15 10:22:59;;;;;;;5.43;4.97;;;25.30;53.10;;;;;;5119023;27;20194;-61
2022/08/15 10:25:28;;;;;;;5.80;4.63;;;25.60;53.40;;;;;;5116403;27;20237;-62
2022/08/15 10:28:05;;;;;;;5.80;4.47;;;25.50;55.10;;;;;;5118786;27;20230;-62
2022/08/15 10:30:35;;;;;;;6.07;5.10;;;25.30;55.10;;;;;;5137402;27;20189;-62
2022/08/15 10:33:24;;;;;;;5.23;4.83;;;25.70;53.80;;;;;;5134989;27;20247;-63
2022/08/15 10:35:51;;;;;;;5.30;4.67;;;25.80;53.00;;;;;;5114738;27;20173;-63
2022/08/15 10:38:25;;;;;;;5.23;4.80;;;25.70;55.00;;;;;;5102119;27;20179;-61
2022/08/15 10:41:00;;;;;;;6.27;5.40;;;25.80;54.40;;;;;;5109700;27;20275;-62
2022/08/15 10:43:46;;;;;;;4.90;4.50;;;26.20;50.50;;;;;;5117052;27;20175;-60
2022/08/15 10:46:17;;;;;;;5.13;4.50;;;26.40;50.70;;;;;;5123640;27;20283;-61
2022/08/15 10:49:31;;;;;;;6.13;5.27;;;26.40;51.20;;;;;;5126837;27;20217;-60
2022/08/15 10:52:19;;;;;;;5.60;5.10;;;26.60;49.90;;;;;;5111764;27;20219;-61
2022/08/15 10:54:55;;;;;;;5.30;4.90;;;26.70;49.40;;;;;;5116470;27;20179;-61
2022/08/15 10:57:24;;;;;;;5.17;4.67;;;26.70;51.10;;;;;;5103646;28;20188;-60
2022/08/15 10:59:53;;;;;;;5.40;4.90;;;26.60;54.30;;;;;;5131263;27;20187;-59
2022/08/15 11:02:27;;;;;;;5.57;5.07;;;26.70;51.20;;;;;;5101631;27;20198;-59
2022/08/15 11:05:10;;;;;;;5.80;5.30;;;26.90;51.50;;;;;;5112015;27;20186;-59
2022/08/15 11:07:40;;;;;;;11.00;5.50;;;26.90;53.60;;;;;;5109225;27;20203;-60
2022/08/15 11:10:14;;;;;;;5.27;4.80;;;27.00;52.00;;;;;;5112276;27;20187;-59
2022/08/15 11:12:49;;;;;;;5.53;5.03;;;27.00;52.20;;;;;;5119347;27;20187;-60
2022/08/15 11:15:19;;;;;;;5.60;5.00;;;26.90;50.60;;;;;;5119135;27;20203;-59
2022/08/15 11:17:50;;;;;;;5.50;5.00;;;27.00;51.40;;;;;;5137172;27;20190;-59
2022/08/15 11:20:22;;;;;;;5.37;4.83;;;27.20;54.40;;;;;;5119471;27;20307;-60
2022/08/15 11:22:58;;;;;;;7.23;5.00;;;27.50;51.30;;;;;;5115247;27;20184;-60
2022/08/15 11:25:27;;;;;;;4.97;4.50;;;27.60;52.80;;;;;;5137411;27;20234;-59
2022/08/15 11:28:01;;;;;;;7.00;5.23;;;27.70;52.00;;;;;;5115856;27;20218;-60
2022/08/15 11:30:29;;;;;;;5.80;5.30;;;27.90;52.10;;;;;;5118419;27;20230;-59
2022/08/15 11:32:55;;;;;;;6.80;5.23;;;28.10;52.80;;;;;;5119050;27;20184;-60
2022/08/15 11:35:25;;;;;;;6.80;4.90;;;28.30;49.70;;;;;;5136804;27;20186;-60
2022/08/15 11:37:56;;;;;;;5.33;4.83;;;28.10;49.00;;;;;;5137331;27;20214;-60
2022/08/15 11:40:21;;;;;;;6.47;5.13;;;28.20;51.30;;;;;;5115970;27;20215;-60
2022/08/15 11:42:49;;;;;;;5.10;4.70;;;28.00;50.90;;;;;;5137082;27;20219;-60
2022/08/15 11:45:21;;;;;;;5.33;4.93;;;27.90;51.30;;;;;;5118808;27;20184;-59
2022/08/15 11:47:55;;;;;;;5.37;4.87;;;27.90;52.20;;;;;;5116589;27;20207;-59
2022/08/15 11:50:31;;;;;;;5.37;4.87;;;27.80;47.80;;;;;;5115439;27;20211;-60
2022/08/15 11:53:01;;;;;;;5.63;5.13;;;27.90;49.20;;;;;;5118915;27;20187;-61
2022/08/15 11:55:43;;;;;;;5.73;5.23;;;27.90;51.20;;;;;;5118188;27;20179;-61
2022/08/15 11:58:11;;;;;;;5.57;5.10;;;28.20;48.00;;;;;;5116206;27;20191;-61
2022/08/15 12:00:52;;;;;;;5.43;5.03;;;28.00;50.30;;;;;;5117537;27;20188;-60
2022/08/15 12:03:32;;;;;;;5.60;5.10;;;28.00;52.50;;;;;;5104915;27;20184;-61
2022/08/15 12:06:12;;;;;;;4.90;4.50;;;27.90;54.60;;;;;;5115199;27;20217;-61
2022/08/15 12:08:42;;;;;;;5.43;5.03;;;28.10;51.70;;;;;;5118229;27;20270;-60
2022/08/15 12:11:17;;;;;;;4.93;4.53;;;28.30;53.40;;;;;;5118977;27;20187;-60
2022/08/15 12:14:11;;;;;;;5.53;5.03;;;28.80;48.80;;;;;;5133232;27;20257;-60
2022/08/15 12:16:49;;;;;;;6.47;4.80;;;29.00;52.60;;;;;;5114206;27;20207;-60
2022/08/15 12:19:29;;;;;;;4.60;4.20;;;29.20;51.90;;;;;;5108160;27;20199;-60
2022/08/15 12:22:00;;;;;;;4.50;4.10;;;29.50;49.70;;;;;;5116731;27;20180;-60
2022/08/15 12:24:32;;;;;;;4.13;3.83;;;29.80;48.30;;;;;;5116726;27;20265;-60
2022/08/15 12:27:01;;;;;;;4.53;4.13;;;30.20;47.30;;;;;;5099830;27;20212;-60
2022/08/15 12:29:31;;;;;;;5.27;3.80;;;30.70;47.00;;;;;;5114200;27;20202;-60
2022/08/15 12:31:59;;;;;;;4.23;3.90;;;31.20;42.10;;;;;;5100981;27;20187;-61
2022/08/15 12:34:36;;;;;;;4.33;3.93;;;31.70;41.80;;;;;;5110825;28;20240;-61
2022/08/15 12:37:05;;;;;;;3.83;3.53;;;32.20;40.90;;;;;;5116523;27;20183;-61
2022/08/15 12:39:30;;;;;;;4.20;3.90;;;32.70;38.40;;;;;;5107269;28;20318;-61
2022/08/15 12:41:56;;;;;;;4.63;4.13;;;33.10;39.60;;;;;;5100334;27;20286;-62
2022/08/15 12:44:25;;;;;;;3.97;3.67;;;33.40;38.50;;;;;;5098296;27;20188;-61
2022/08/15 12:46:53;;;;;;;3.50;3.20;;;33.70;39.00;;;;;;5106649;28;20204;-61
2022/08/15 12:49:18;;;;;;;3.80;3.50;;;34.20;37.00;;;;;;5097341;28;20184;-61
2022/08/15 12:51:45;;;;;;;3.93;3.63;;;34.60;37.40;;;;;;5113535;27;20183;-61
2022/08/15 12:54:10;;;;;;;3.50;3.20;;;34.70;36.00;;;;;;5113637;27;20258;-61
2022/08/15 12:56:37;;;;;;;3.97;3.67;;;34.60;35.70;;;;;;5116837;27;20274;-61
2022/08/15 12:59:05;;;;;;;4.20;3.90;;;34.40;36.40;;;;;;5113295;27;20192;-60
2022/08/15 13:01:34;;;;;;;4.47;4.10;;;33.80;34.20;;;;;;5116384;27;20325;-60
2022/08/15 13:04:04;;;;;;;4.57;3.30;;;33.70;39.10;;;;;;5107151;28;20253;-61
2022/08/15 13:06:51;;;;;;;9.27;3.90;;;33.30;35.60;;;;;;5100375;27;20192;-61
2022/08/15 13:09:19;;;;;;;3.60;3.30;;;33.20;37.30;;;;;;5135547;27;20179;-60
2022/08/15 13:11:48;;;;;;;47.03;43.63;;;32.80;35.80;;;;;;5117782;27;20262;-60
2022/08/15 13:14:17;;;;;;;4.57;4.27;;;32.70;37.20;;;;;;5129548;27;20196;-61
2022/08/15 13:16:47;;;;;;;5.57;5.13;;;32.80;39.20;;;;;;5111341;27;20213;-61
2022/08/15 13:25:20;;;;;;;3.57;3.27;;;34.10;34.50;;;;;;5134411;27;20273;-62
2022/08/15 13:27:50;;;;;;;3.47;3.17;;;34.50;34.20;;;;;;5116613;27;20194;-62
2022/08/15 13:30:18;;;;;;;3.97;3.67;;;34.80;35.50;;;;;;5134933;27;20183;-61
2022/08/15 13:32:45;;;;;;;6.93;4.20;;;34.80;33.50;;;;;;5107821;27;20202;-61